Time;durP1;ratioP1;P1;durP2;ratioP2;P2;SDS_P1;SDS_P2;PMS_P1;PMS_P2;Temp;Humidity;BMP_temperature;BMP_pressure;BME280_temperature;BME280_humidity;BME280_pressure;Samples;Min_cycle;Max_cycle;Signal;HPM_P1;HPM_P2
2022/08/24 00:02:00;;;;;;;16.88;14.07;;;16.80;99.90;;;;;;5037233;28;20362;-82
2022/08/24 00:04:25;;;;;;;18.38;14.90;;;16.80;99.90;;;;;;5037685;28;20453;-82
2022/08/24 00:06:51;;;;;;;20.27;15.95;;;16.80;99.90;;;;;;5037423;28;20048;-82
2022/08/24 00:09:27;;;;;;;19.38;15.73;;;16.70;99.90;;;;;;5036534;28;20057;-83
2022/08/24 00:11:52;;;;;;;23.33;17.35;;;16.70;99.90;;;;;;5036994;28;20450;-82
2022/08/24 00:14:18;;;;;;;20.52;16.05;;;16.70;99.90;;;;;;5035603;28;20504;-82
2022/08/24 00:16:43;;;;;;;17.48;14.20;;;16.70;99.90;;;;;;5036334;28;20498;-81
2022/08/24 00:19:10;;;;;;;21.30;15.82;;;16.60;99.90;;;;;;5036318;28;20025;-82
2022/08/24 00:21:36;;;;;;;19.98;15.55;;;16.70;99.90;;;;;;5035313;28;20029;-83
2022/08/24 00:24:01;;;;;;;20.88;15.77;;;16.80;99.90;;;;;;5018030;28;20040;-82
2022/08/24 00:26:27;;;;;;;19.55;15.25;;;16.70;99.90;;;;;;5038008;28;20025;-82
2022/08/24 00:28:53;;;;;;;20.23;16.05;;;16.70;99.90;;;;;;5017827;28;20028;-82
2022/08/24 00:31:18;;;;;;;19.60;15.10;;;16.70;99.90;;;;;;5035019;28;20147;-82
2022/08/24 00:33:44;;;;;;;19.45;14.98;;;16.70;99.90;;;;;;5035425;28;20048;-82
2022/08/24 00:36:10;;;;;;;20.73;15.23;;;16.60;99.90;;;;;;5034849;28;20096;-83
2022/08/24 00:38:36;;;;;;;19.85;14.90;;;16.70;99.90;;;;;;5034161;28;20408;-82
2022/08/24 00:41:02;;;;;;;18.58;14.82;;;16.60;99.90;;;;;;5034395;28;20036;-83
2022/08/24 00:43:28;;;;;;;17.65;14.02;;;16.50;99.90;;;;;;5034535;28;20111;-82
2022/08/24 00:46:09;;;;;;;15.68;12.05;;;16.50;99.90;;;;;;5034360;28;20053;-82
2022/08/24 00:48:41;;;;;;;17.77;13.93;;;16.50;99.90;;;;;;5034526;28;20025;-82
2022/08/24 00:51:33;;;;;;;18.23;13.07;;;16.50;99.90;;;;;;5034288;28;20083;-82
2022/08/24 00:54:11;;;;;;;16.52;13.10;;;16.40;99.90;;;;;;5034065;28;20076;-82
2022/08/24 00:56:42;;;;;;;14.98;11.07;;;16.40;99.90;;;;;;5034081;28;20033;-82
2022/08/24 00:59:17;;;;;;;20.17;13.82;;;16.40;99.90;;;;;;5034185;28;20026;-82
2022/08/24 01:01:43;;;;;;;17.35;13.27;;;16.40;99.90;;;;;;5034045;28;20350;-83
2022/08/24 01:04:15;;;;;;;14.88;12.77;;;16.40;99.90;;;;;;5034486;28;20028;-81
2022/08/24 01:06:41;;;;;;;15.00;13.00;;;16.30;99.90;;;;;;5034577;28;20029;-82
2022/08/24 01:09:07;;;;;;;16.38;12.25;;;16.20;99.90;;;;;;5034045;28;20021;-82
2022/08/24 01:11:34;;;;;;;16.65;13.48;;;16.20;99.90;;;;;;5016341;28;20021;-83
2022/08/24 01:14:01;;;;;;;19.95;13.75;;;16.20;99.90;;;;;;5016250;28;20022;-82
2022/08/24 01:19:34;;;;;;;16.08;12.60;;;16.20;99.90;;;;;;5034378;28;20486;-82
2022/08/24 01:22:20;;;;;;;16.77;14.18;;;16.20;99.90;;;;;;5033703;28;20032;-82
2022/08/24 01:24:46;;;;;;;17.98;13.90;;;16.20;99.90;;;;;;5016972;28;20030;-82
2022/08/24 01:27:14;;;;;;;18.25;13.88;;;16.10;99.90;;;;;;5035661;28;20021;-83
2022/08/24 01:29:41;;;;;;;19.13;14.07;;;16.10;99.90;;;;;;5016434;28;20029;-83
2022/08/24 01:32:07;;;;;;;20.33;13.75;;;16.20;99.90;;;;;;5033976;28;20104;-83
2022/08/24 01:34:33;;;;;;;17.85;13.38;;;16.30;99.90;;;;;;5034271;28;20108;-83
2022/08/24 01:37:00;;;;;;;19.02;14.02;;;16.30;99.90;;;;;;5034112;28;20025;-82
2022/08/24 01:39:42;;;;;;;23.30;14.77;;;16.20;99.90;;;;;;5034735;28;20017;-83
2022/08/24 01:42:09;;;;;;;19.58;14.80;;;16.30;99.90;;;;;;5033650;28;20095;-83
2022/08/24 01:44:37;;;;;;;19.55;15.63;;;16.40;99.90;;;;;;5013996;28;20109;-83
2022/08/24 01:47:04;;;;;;;20.25;15.75;;;16.20;99.90;;;;;;5015119;28;20021;-82
2022/08/24 01:49:35;;;;;;;21.50;16.10;;;16.20;99.90;;;;;;5033265;28;20042;-83
2022/08/24 01:52:02;;;;;;;22.75;16.15;;;16.10;99.90;;;;;;5033651;28;20096;-83
2022/08/24 01:54:27;;;;;;;20.08;15.48;;;16.10;99.90;;;;;;5034078;28;20092;-83
2022/08/24 01:56:54;;;;;;;19.75;15.35;;;16.10;99.90;;;;;;5034114;28;20351;-83
2022/08/24 01:59:20;;;;;;;20.48;15.55;;;16.10;99.90;;;;;;5034085;28;20566;-83
2022/08/24 02:01:53;;;;;;;20.42;16.42;;;16.00;99.90;;;;;;5033925;28;20108;-83
2022/08/24 02:04:19;;;;;;;19.75;15.35;;;16.10;99.90;;;;;;5034048;28;20366;-83
2022/08/24 02:06:45;;;;;;;21.83;16.08;;;16.20;99.90;;;;;;5035535;28;20658;-83
2022/08/24 02:09:11;;;;;;;19.48;15.77;;;15.90;99.90;;;;;;5037267;28;20029;-83
2022/08/24 02:11:38;;;;;;;22.33;17.45;;;15.90;99.90;;;;;;5037805;28;20568;-83
2022/08/24 02:14:04;;;;;;;24.23;17.85;;;15.90;99.90;;;;;;5037137;28;20022;-83
2022/08/24 02:16:30;;;;;;;26.02;18.13;;;15.90;99.90;;;;;;5037631;28;20033;-83
2022/08/24 02:18:56;;;;;;;26.13;18.45;;;16.00;99.90;;;;;;5037405;28;20096;-83
2022/08/24 02:21:22;;;;;;;24.08;17.15;;;15.80;99.90;;;;;;5036949;28;20088;-83
2022/08/24 02:23:48;;;;;;;24.30;18.13;;;15.90;99.90;;;;;;5037123;28;20480;-82
2022/08/24 02:26:13;;;;;;;23.02;17.23;;;15.90;99.90;;;;;;5038972;28;20041;-82
2022/08/24 02:28:39;;;;;;;24.95;18.35;;;15.80;99.90;;;;;;5020248;28;20025;-84
2022/08/24 02:31:06;;;;;;;25.60;17.60;;;15.90;99.90;;;;;;5018822;28;20057;-83
2022/08/24 02:33:36;;;;;;;24.73;17.05;;;16.00;99.90;;;;;;5018140;28;20508;-83
2022/08/24 02:36:02;;;;;;;25.58;19.17;;;16.10;99.90;;;;;;5033476;28;20064;-83
2022/08/24 02:38:28;;;;;;;22.77;17.42;;;16.30;99.90;;;;;;5037006;28;20048;-81
2022/08/24 02:40:55;;;;;;;24.67;17.00;;;16.30;99.90;;;;;;5036480;28;20025;-83
2022/08/24 02:43:20;;;;;;;27.45;18.77;;;16.40;99.90;;;;;;5037000;28;20025;-83
2022/08/24 02:45:46;;;;;;;27.15;19.80;;;16.60;99.90;;;;;;5037432;28;20075;-82
2022/08/24 02:48:12;;;;;;;29.45;18.95;;;16.50;99.90;;;;;;5048468;28;20697;-82
2022/08/24 02:50:41;;;;;;;25.20;18.45;;;16.50;99.90;;;;;;5049059;28;20021;-83
2022/08/24 02:53:07;;;;;;;26.92;20.10;;;16.40;99.90;;;;;;5029084;28;20080;-83
2022/08/24 02:55:33;;;;;;;26.33;19.23;;;16.50;99.90;;;;;;5048075;28;20033;-83
2022/08/24 02:57:59;;;;;;;27.30;19.55;;;16.30;99.90;;;;;;5048899;28;20026;-82
2022/08/24 03:00:26;;;;;;;26.30;19.13;;;16.40;99.90;;;;;;5041987;28;20036;-84
2022/08/24 03:02:53;;;;;;;30.55;20.80;;;16.30;99.90;;;;;;5036640;28;20503;-83
2022/08/24 03:05:19;;;;;;;31.67;21.25;;;16.30;99.90;;;;;;5036300;28;20097;-83
2022/08/24 03:07:44;;;;;;;28.45;21.27;;;16.30;99.90;;;;;;5036554;28;20122;-83
2022/08/24 03:10:10;;;;;;;32.88;22.15;;;16.30;99.90;;;;;;5036506;28;20028;-83
2022/08/24 03:12:36;;;;;;;29.75;21.10;;;16.20;99.90;;;;;;5036310;28;20144;-83
2022/08/24 03:15:04;;;;;;;28.17;20.67;;;16.20;99.90;;;;;;5036489;28;20112;-83
2022/08/24 03:17:32;;;;;;;29.13;20.45;;;16.20;99.90;;;;;;5035685;28;20061;-83
2022/08/24 03:19:59;;;;;;;29.17;21.23;;;16.20;99.90;;;;;;5018266;28;20025;-83
2022/08/24 03:22:25;;;;;;;27.98;19.73;;;16.10;99.90;;;;;;5036056;28;20026;-83
2022/08/24 03:24:51;;;;;;;28.33;20.73;;;16.10;99.90;;;;;;5036136;28;20028;-82
2022/08/24 03:27:16;;;;;;;28.02;20.30;;;16.00;99.90;;;;;;5036420;28;20134;-82
2022/08/24 03:29:42;;;;;;;29.92;20.70;;;16.00;99.90;;;;;;5035892;28;20067;-83
2022/08/24 03:32:07;;;;;;;32.95;21.27;;;16.10;1.00;;;;;;5036045;28;20025;-83
2022/08/24 03:34:33;;;;;;;30.25;21.38;;;15.90;99.90;;;;;;5036310;28;20078;-83
2022/08/24 03:36:59;;;;;;;34.25;23.45;;;16.00;99.90;;;;;;5035558;28;20018;-83
2022/08/24 03:39:24;;;;;;;32.95;22.45;;;16.10;99.90;;;;;;5035593;28;20074;-83
2022/08/24 03:41:50;;;;;;;33.08;22.80;;;16.00;99.90;;;;;;5028484;28;20153;-83
2022/08/24 03:44:15;;;;;;;36.60;24.65;;;16.10;1.00;;;;;;5015911;28;20030;-83
2022/08/24 03:46:41;;;;;;;35.13;23.10;;;16.10;1.00;;;;;;5024939;28;20021;-83
2022/08/24 03:49:08;;;;;;;34.42;22.75;;;16.10;1.00;;;;;;5035245;28;20053;-84
2022/08/24 03:51:35;;;;;;;31.20;22.08;;;16.00;99.90;;;;;;5035515;28;20119;-84
2022/08/24 03:54:04;;;;;;;36.47;23.50;;;16.00;1.00;;;;;;5035340;28;20033;-84
2022/08/24 03:56:29;;;;;;;33.88;23.55;;;16.10;1.00;;;;;;5034985;28;20022;-83
2022/08/24 03:58:55;;;;;;;32.17;22.50;;;16.10;99.90;;;;;;5017659;28;20017;-83
2022/08/24 04:01:21;;;;;;;31.25;22.85;;;15.90;99.90;;;;;;5035150;28;20032;-83
2022/08/24 04:03:47;;;;;;;29.88;20.80;;;16.00;99.90;;;;;;5035002;28;20029;-82
2022/08/24 04:06:16;;;;;;;35.53;24.48;;;15.70;99.90;;;;;;5035239;28;20024;-83
2022/08/24 04:08:42;;;;;;;39.47;25.67;;;15.90;99.90;;;;;;5035041;28;20108;-82
2022/08/24 04:11:17;;;;;;;35.50;23.70;;;16.00;1.00;;;;;;5035301;28;20026;-83
2022/08/24 04:13:43;;;;;;;36.10;24.80;;;15.90;99.90;;;;;;5034943;28;20367;-83
2022/08/24 04:16:12;;;;;;;39.20;25.85;;;16.00;1.00;;;;;;5035400;28;20071;-83
2022/08/24 04:18:39;;;;;;;43.10;28.13;;;16.00;1.00;;;;;;5035013;28;20022;-83
2022/08/24 04:21:05;;;;;;;41.78;26.05;;;16.10;1.00;;;;;;5034752;28;20473;-83
2022/08/24 04:23:32;;;;;;;43.30;27.92;;;15.90;99.90;;;;;;5034655;28;20041;-82
2022/08/24 04:26:03;;;;;;;41.10;26.17;;;16.00;1.00;;;;;;5035729;28;20104;-83
2022/08/24 04:28:29;;;;;;;41.67;25.60;;;16.10;1.00;;;;;;5034094;28;20030;-83
2022/08/24 04:30:55;;;;;;;39.97;26.65;;;16.00;1.00;;;;;;5034751;28;20362;-83
2022/08/24 04:33:21;;;;;;;40.88;26.67;;;16.10;1.00;;;;;;5016912;28;20028;-83
2022/08/24 04:35:47;;;;;;;39.17;27.42;;;16.00;1.00;;;;;;5034843;28;20025;-83
2022/08/24 04:38:15;;;;;;;39.20;26.88;;;16.10;1.00;;;;;;5034495;28;20073;-83
2022/08/24 04:40:43;;;;;;;39.00;26.80;;;16.10;1.00;;;;;;5034681;28;20021;-83
2022/08/24 04:43:09;;;;;;;42.05;27.20;;;16.10;1.00;;;;;;5034484;28;20025;-83
2022/08/24 04:45:39;;;;;;;38.30;26.70;;;16.20;1.00;;;;;;5034702;28;20034;-83
2022/08/24 04:48:05;;;;;;;42.72;28.70;;;16.30;1.00;;;;;;5034798;28;20039;-83
2022/08/24 04:50:36;;;;;;;41.30;27.33;;;16.10;1.00;;;;;;5034108;28;20104;-83
2022/08/24 04:53:03;;;;;;;46.35;30.23;;;16.10;99.90;;;;;;5034238;28;20022;-84
2022/08/24 04:55:28;;;;;;;48.47;30.20;;;16.30;1.00;;;;;;5015322;28;20063;-82
2022/08/24 04:57:54;;;;;;;42.22;28.42;;;16.40;1.00;;;;;;5014499;28;20049;-83
2022/08/24 05:00:20;;;;;;;49.92;32.45;;;16.40;99.90;;;;;;5034162;28;20083;-83
2022/08/24 05:02:45;;;;;;;47.20;32.03;;;16.50;99.90;;;;;;5030056;28;20033;-83
2022/08/24 05:05:11;;;;;;;51.45;33.25;;;16.60;99.90;;;;;;5014042;28;20022;-82
2022/08/24 05:07:37;;;;;;;50.70;32.45;;;16.70;99.90;;;;;;5024981;28;20020;-82
2022/08/24 05:10:06;;;;;;;49.33;31.70;;;16.70;99.90;;;;;;5033263;28;20147;-82
2022/08/24 05:12:32;;;;;;;42.67;30.65;;;16.80;99.90;;;;;;4996620;28;20033;-82
2022/08/24 05:14:58;;;;;;;45.03;30.60;;;17.00;99.90;;;;;;5026384;28;20021;-82
2022/08/24 05:17:25;;;;;;;44.35;30.13;;;17.20;1.00;;;;;;5033759;28;20040;-83
2022/08/24 05:19:51;;;;;;;45.67;31.85;;;17.20;99.90;;;;;;5034291;28;20043;-82
2022/08/24 05:22:17;;;;;;;47.50;30.63;;;17.20;99.90;;;;;;5033577;28;20055;-83
2022/08/24 05:24:42;;;;;;;49.47;33.15;;;17.40;99.90;;;;;;5033407;28;20104;-82
2022/08/24 05:27:08;;;;;;;48.22;32.28;;;17.70;1.00;;;;;;5034193;28;20025;-83
2022/08/24 05:29:34;;;;;;;50.25;32.70;;;17.70;99.90;;;;;;5033356;28;20030;-83
2022/08/24 05:32:00;;;;;;;46.00;31.70;;;17.80;99.90;;;;;;5033672;28;20377;-82
2022/08/24 05:34:26;;;;;;;49.90;32.10;;;18.20;99.90;;;;;;5034064;28;20026;-82
2022/08/24 05:36:51;;;;;;;47.83;33.20;;;18.30;99.90;;;;;;5033543;28;20485;-83
2022/08/24 05:39:17;;;;;;;48.85;33.25;;;18.30;99.90;;;;;;5032782;28;20068;-82
2022/08/24 05:41:44;;;;;;;48.40;33.42;;;18.50;99.90;;;;;;5037381;28;20466;-84
2022/08/24 05:44:11;;;;;;;40.90;30.20;;;21.20;99.90;;;;;;5037449;28;20034;-83
2022/08/24 05:46:37;;;;;;;38.08;28.90;;;23.60;99.90;;;;;;5037336;28;20017;-83
2022/08/24 05:49:03;;;;;;;35.97;27.83;;;25.10;99.90;;;;;;5037190;28;20099;-83
2022/08/24 05:51:29;;;;;;;38.22;27.23;;;24.80;99.90;;;;;;5037244;28;20029;-83
2022/08/24 05:53:55;;;;;;;40.20;30.08;;;23.10;99.90;;;;;;5037419;28;20028;-84
2022/08/24 05:56:21;;;;;;;8.68;6.72;;;22.10;99.90;;;;;;5037899;28;20504;-82
2022/08/24 05:58:47;;;;;;;16.23;12.88;;;21.60;99.90;;;;;;5037971;28;20025;-82
2022/08/24 06:01:17;;;;;;;21.35;16.90;;;21.50;99.90;;;;;;5037137;28;20129;-83
2022/08/24 06:03:43;;;;;;;27.63;22.10;;;21.60;99.90;;;;;;5037055;28;20037;-84
2022/08/24 06:06:10;;;;;;;31.15;22.92;;;21.70;99.90;;;;;;5036944;28;20112;-80
2022/08/24 06:08:38;;;;;;;36.75;26.30;;;21.80;99.90;;;;;;5036375;28;20545;-81
2022/08/24 06:11:04;;;;;;;30.23;22.33;;;21.90;99.90;;;;;;5036397;28;20025;-80
2022/08/24 06:13:31;;;;;;;36.17;25.73;;;21.80;99.90;;;;;;5036661;28;20626;-80
2022/08/24 06:16:12;;;;;;;32.60;24.80;;;22.00;99.90;;;;;;5036400;28;20045;-81
2022/08/24 06:18:39;;;;;;;34.45;24.33;;;22.40;99.90;;;;;;5036396;28;20029;-81
2022/08/24 06:21:10;;;;;;;32.25;24.77;;;22.40;99.90;;;;;;5036431;28;20074;-80
2022/08/24 06:23:37;;;;;;;32.38;26.83;;;22.40;99.90;;;;;;5036119;28;20022;-80
2022/08/24 06:28:48;;;;;;;35.85;26.80;;;22.80;99.90;;;;;;5037771;28;20503;-80
2022/08/24 06:31:15;;;;;;;35.47;24.05;;;22.70;99.90;;;;;;5037337;28;20025;-81
2022/08/24 06:33:40;;;;;;;33.03;25.00;;;22.90;99.90;;;;;;5038371;28;20021;-81
2022/08/24 06:36:06;;;;;;;37.17;24.45;;;23.20;99.90;;;;;;5032217;28;20022;-80
2022/08/24 06:38:32;;;;;;;32.22;24.92;;;23.20;99.90;;;;;;5035637;28;20432;-81
2022/08/24 06:40:57;;;;;;;27.05;22.33;;;23.50;99.90;;;;;;5035946;28;20028;-80
2022/08/24 06:43:23;;;;;;;29.10;22.98;;;27.50;99.90;;;;;;5017624;28;20030;-81
2022/08/24 06:45:49;;;;;;;27.63;21.48;;;31.10;99.90;;;;;;5018619;28;20045;-80
2022/08/24 06:48:15;;;;;;;26.15;20.90;;;33.60;99.90;;;;;;5035058;28;20033;-80
2022/08/24 06:50:41;;;;;;;23.95;20.15;;;34.80;99.90;;;;;;5019861;28;20026;-81
2022/08/24 06:53:07;;;;;;;25.98;20.50;;;36.50;99.90;;;;;;5036445;28;20037;-81
2022/08/24 06:55:32;;;;;;;25.15;19.00;;;37.40;99.90;;;;;;5037631;28;20377;-81
2022/08/24 06:57:58;;;;;;;25.23;18.65;;;38.10;99.90;;;;;;5010760;28;20026;-80
2022/08/24 07:00:24;;;;;;;21.02;17.77;;;38.60;99.90;;;;;;5039524;28;20824;-81
2022/08/24 07:02:50;;;;;;;25.52;17.85;;;39.20;99.90;;;;;;5047724;28;20048;-80
2022/08/24 07:05:17;;;;;;;24.95;18.13;;;39.50;99.90;;;;;;5057421;28;20021;-81
2022/08/24 07:07:42;;;;;;;22.70;17.88;;;40.70;99.90;;;;;;5057486;28;20049;-82
2022/08/24 07:10:08;;;;;;;19.73;16.10;;;40.70;99.90;;;;;;5056646;28;20465;-82
2022/08/24 07:12:35;;;;;;;15.43;13.93;;;38.60;99.90;;;;;;5057430;28;20021;-82
2022/08/24 07:15:02;;;;;;;12.38;11.05;;;37.30;99.90;;;;;;5050661;28;20073;-82
2022/08/24 07:17:28;;;;;;;11.02;9.95;;;37.50;99.90;;;;;;5054887;28;20021;-81
2022/08/24 07:19:54;;;;;;;12.20;10.02;;;35.40;99.90;;;;;;5041908;28;20105;-82
2022/08/24 07:22:20;;;;;;;9.25;8.32;;;38.60;99.90;;;;;;5039454;28;20473;-83
2022/08/24 07:24:45;;;;;;;11.32;8.40;;;41.30;99.90;;;;;;5039876;28;20101;-81
2022/08/24 07:27:12;;;;;;;11.70;8.88;;;42.50;99.90;;;;;;5043109;28;20112;-82
2022/08/24 07:29:38;;;;;;;10.23;8.93;;;44.20;99.90;;;;;;5039516;28;20014;-82
2022/08/24 07:32:04;;;;;;;10.15;8.88;;;45.10;99.90;;;;;;5041180;28;20035;-82
2022/08/24 07:34:30;;;;;;;9.95;8.95;;;44.40;99.90;;;;;;5041230;28;20048;-80
2022/08/24 07:36:55;;;;;;;11.18;9.20;;;44.50;99.90;;;;;;5048287;28;20033;-81
2022/08/24 07:39:21;;;;;;;14.45;10.25;;;43.40;99.40;;;;;;5039053;28;20051;-81
2022/08/24 07:41:46;;;;;;;11.73;9.30;;;41.80;98.50;;;;;;5037164;28;20091;-81
2022/08/24 07:44:14;;;;;;;10.55;9.55;;;41.50;98.30;;;;;;5037815;28;20049;-81
2022/08/24 07:46:40;;;;;;;12.13;10.93;;;42.00;99.60;;;;;;5031243;28;20040;-81
2022/08/24 07:49:07;;;;;;;10.20;9.18;;;39.80;97.70;;;;;;5039096;28;20075;-82
2022/08/24 07:51:33;;;;;;;9.43;8.25;;;39.70;99.60;;;;;;5022473;28;20030;-82
2022/08/24 07:54:00;;;;;;;9.68;7.70;;;38.90;99.90;;;;;;5027029;28;20017;-82
2022/08/24 07:56:27;;;;;;;7.03;6.43;;;38.60;99.90;;;;;;5036792;28;20396;-82
2022/08/24 07:58:54;;;;;;;10.50;7.13;;;40.00;99.90;;;;;;5032897;28;20032;-82
2022/08/24 08:01:20;;;;;;;9.68;8.52;;;41.90;98.40;;;;;;5029294;28;20397;-82
2022/08/24 08:03:46;;;;;;;9.68;8.68;;;43.40;96.30;;;;;;5028992;28;20078;-82
2022/08/24 08:06:12;;;;;;;9.88;8.88;;;44.00;95.10;;;;;;5034785;28;20049;-82
2022/08/24 08:08:44;;;;;;;10.98;9.85;;;45.00;94.10;;;;;;5037026;28;20668;-82
2022/08/24 08:11:10;;;;;;;10.57;8.50;;;44.20;93.00;;;;;;5035651;28;20461;-82
2022/08/24 08:13:36;;;;;;;10.15;8.57;;;45.80;91.80;;;;;;5022429;28;20026;-80
2022/08/24 08:16:02;;;;;;;10.52;8.48;;;45.90;89.50;;;;;;5047326;28;20506;-81
2022/08/24 08:18:28;;;;;;;11.18;9.85;;;45.40;87.50;;;;;;5052448;28;20021;-81
2022/08/24 08:20:54;;;;;;;10.40;9.40;;;45.00;86.10;;;;;;5052636;28;20034;-81
2022/08/24 08:26:07;;;;;;;8.20;7.43;;;46.50;83.10;;;;;;5053774;28;20041;-81
2022/08/24 08:28:33;;;;;;;8.85;7.82;;;47.10;79.70;;;;;;5052025;28;20017;-81
2022/08/24 08:31:00;;;;;;;9.75;8.75;;;44.20;80.00;;;;;;5039800;28;20021;-82
2022/08/24 08:33:26;;;;;;;8.57;7.78;;;46.30;78.80;;;;;;5037066;28;20029;-82
2022/08/24 08:36:02;;;;;;;10.20;9.10;;;47.00;75.20;;;;;;5028125;28;20026;-82
2022/08/24 08:38:28;;;;;;;10.18;7.65;;;46.00;71.30;;;;;;5042661;28;20045;-82
2022/08/24 08:41:12;;;;;;;9.90;8.30;;;45.90;72.70;;;;;;5040638;28;20036;-82
2022/08/24 08:43:59;;;;;;;8.48;7.60;;;46.90;72.50;;;;;;5039253;28;20117;-81
2022/08/24 08:46:52;;;;;;;8.98;6.85;;;48.00;68.90;;;;;;5038191;28;20108;-81
2022/08/24 08:49:41;;;;;;;9.25;7.18;;;47.80;65.20;;;;;;5041118;28;20029;-82
2022/08/24 08:52:23;;;;;;;7.72;6.95;;;47.20;63.80;;;;;;5035110;28;20017;-82
2022/08/24 08:54:58;;;;;;;8.05;7.25;;;47.80;63.80;;;;;;5041535;28;20026;-81
2022/08/24 08:57:42;;;;;;;9.50;7.07;;;48.90;59.50;;;;;;5042149;28;20473;-82
2022/08/24 09:00:19;;;;;;;8.13;7.13;;;48.30;58.60;;;;;;5041638;28;20022;-82
2022/08/24 09:02:54;;;;;;;8.07;6.10;;;47.70;56.50;;;;;;5042520;28;20128;-82
2022/08/24 09:05:36;;;;;;;6.05;5.53;;;48.20;57.20;;;;;;5025352;28;20033;-82
2022/08/24 09:08:09;;;;;;;7.15;5.53;;;49.30;53.80;;;;;;5041738;28;20025;-82
2022/08/24 09:10:53;;;;;;;5.70;5.13;;;49.40;52.00;;;;;;5042145;28;20060;-82
2022/08/24 09:14:06;;;;;;;6.78;5.70;;;49.50;49.40;;;;;;5026224;28;20032;-82
2022/08/24 09:16:34;;;;;;;6.03;5.35;;;48.50;50.00;;;;;;5022076;28;20038;-82
2022/08/24 09:19:22;;;;;;;6.72;5.82;;;48.10;50.90;;;;;;5029045;28;20021;-82
2022/08/24 09:22:21;;;;;;;7.67;4.87;;;45.00;50.70;;;;;;5043042;28;20446;-81
2022/08/24 09:24:52;;;;;;;5.63;4.93;;;45.70;52.10;;;;;;5023671;28;20500;-81
2022/08/24 09:27:56;;;;;;;5.22;4.18;;;46.40;51.20;;;;;;5049469;28;20026;-82
2022/08/24 09:30:31;;;;;;;4.85;4.38;;;44.90;50.20;;;;;;5043522;28;20030;-82
2022/08/24 09:33:08;;;;;;;4.93;4.32;;;42.00;53.60;;;;;;5033286;28;20097;-81
2022/08/24 09:35:49;;;;;;;5.55;4.30;;;45.30;56.70;;;;;;5034144;28;20077;-82
2022/08/24 09:38:33;;;;;;;6.15;4.72;;;45.00;53.80;;;;;;5038832;28;20501;-82
2022/08/24 09:41:25;;;;;;;5.28;4.85;;;44.50;55.10;;;;;;5033817;28;20064;-82
2022/08/24 09:44:29;;;;;;;5.65;4.20;;;45.10;53.70;;;;;;5039037;28;20087;-82
2022/08/24 09:46:58;;;;;;;4.57;4.13;;;44.90;51.70;;;;;;5031410;28;20136;-82
2022/08/24 09:49:52;;;;;;;5.72;5.18;;;46.00;52.30;;;;;;5040413;28;20028;-82
2022/08/24 09:52:17;;;;;;;6.85;5.80;;;46.50;49.40;;;;;;5036233;28;20041;-82
2022/08/24 09:55:01;;;;;;;7.68;5.30;;;46.20;49.20;;;;;;5037220;28;20037;-81
2022/08/24 09:57:39;;;;;;;5.43;4.93;;;46.40;48.00;;;;;;5023590;28;20561;-81
2022/08/24 10:00:17;;;;;;;7.10;4.60;;;45.90;47.30;;;;;;5020939;28;20052;-81
2022/08/24 10:02:57;;;;;;;4.70;4.20;;;46.30;47.60;;;;;;5037035;28;20022;-82
2022/08/24 10:06:00;;;;;;;4.63;3.40;;;45.40;48.00;;;;;;5042149;28;20601;-82
2022/08/24 10:08:53;;;;;;;3.92;3.53;;;46.80;45.70;;;;;;5025283;28;20044;-82
2022/08/24 10:11:30;;;;;;;6.03;4.05;;;47.20;44.10;;;;;;5035824;28;20033;-82
2022/08/24 10:14:14;;;;;;;4.80;4.40;;;46.00;44.00;;;;;;5044810;28;20049;-82
2022/08/24 10:17:11;;;;;;;6.25;3.65;;;46.80;44.00;;;;;;5047704;28;20076;-82
2022/08/24 10:20:14;;;;;;;5.10;4.30;;;47.90;42.30;;;;;;5047678;28;20021;-82
2022/08/24 10:22:57;;;;;;;5.10;4.10;;;46.10;43.00;;;;;;5051298;28;20081;-82
2022/08/24 10:25:44;;;;;;;6.03;3.75;;;46.80;43.50;;;;;;5041850;28;20040;-82
2022/08/24 10:28:30;;;;;;;7.03;3.92;;;47.60;41.50;;;;;;5048001;28;20025;-82
2022/08/24 10:31:40;;;;;;;5.50;4.03;;;48.00;40.10;;;;;;5049967;28;20033;-82
2022/08/24 10:34:09;;;;;;;6.72;4.90;;;47.30;43.30;;;;;;5000766;28;20041;-83
2022/08/24 10:36:53;;;;;;;6.20;4.00;;;46.90;38.90;;;;;;5049631;28;20009;-82
2022/08/24 10:39:51;;;;;;;6.55;3.88;;;47.70;39.70;;;;;;5048646;28;20045;-82
2022/08/24 10:46:14;;;;;;;5.90;4.05;;;47.90;38.70;;;;;;5021839;28;20083;-81
2022/08/24 10:49:10;;;;;;;6.53;4.65;;;46.60;38.80;;;;;;5051973;28;20021;-82
2022/08/24 10:51:55;;;;;;;5.88;4.53;;;46.50;39.00;;;;;;5052566;28;20021;-81
2022/08/24 10:54:22;;;;;;;6.28;4.75;;;46.20;39.10;;;;;;5058058;28;20017;-82
2022/08/24 10:57:02;;;;;;;7.50;5.38;;;46.20;39.20;;;;;;5058463;28;20030;-82
2022/08/24 10:59:47;;;;;;;5.35;4.60;;;44.50;41.00;;;;;;5050465;28;20020;-81
2022/08/24 11:02:33;;;;;;;5.00;4.43;;;43.60;42.40;;;;;;5057972;28;20025;-81
2022/08/24 11:05:06;;;;;;;4.95;4.45;;;41.80;43.90;;;;;;5058034;28;20029;-82
2022/08/24 11:07:33;;;;;;;6.55;5.30;;;41.50;46.70;;;;;;5051250;28;20033;-82
2022/08/24 11:10:05;;;;;;;5.30;4.15;;;39.20;48.50;;;;;;5058021;28;20033;-81
2022/08/24 11:12:34;;;;;;;7.28;5.80;;;37.50;52.70;;;;;;5046684;28;20037;-82
2022/08/24 11:15:22;;;;;;;6.28;4.28;;;36.80;55.00;;;;;;5058387;28;20104;-82
2022/08/24 11:18:00;;;;;;;7.03;5.40;;;36.10;58.30;;;;;;5047899;28;20029;-82
2022/08/24 11:20:33;;;;;;;7.18;5.15;;;34.70;59.80;;;;;;5052558;28;20022;-81
2022/08/24 11:23:01;;;;;;;4.88;3.53;;;34.60;63.90;;;;;;5057866;28;20037;-82
2022/08/24 11:25:31;;;;;;;5.88;5.35;;;34.80;64.80;;;;;;5058114;28;20039;-81
2022/08/24 11:28:09;;;;;;;5.90;5.32;;;34.50;65.40;;;;;;5058530;28;20044;-82
2022/08/24 11:30:39;;;;;;;7.05;4.72;;;34.30;68.80;;;;;;5058246;28;20092;-82
2022/08/24 11:33:24;;;;;;;5.15;4.13;;;34.70;70.30;;;;;;5058422;28;20044;-82
2022/08/24 11:35:49;;;;;;;6.47;4.30;;;34.20;72.40;;;;;;5052281;28;20028;-82
2022/08/24 11:38:19;;;;;;;3.25;2.80;;;34.00;72.60;;;;;;5057090;28;20054;-82
2022/08/24 11:40:58;;;;;;;5.90;3.50;;;34.10;76.30;;;;;;5057894;28;20033;-82
2022/08/24 11:44:01;;;;;;;5.03;3.40;;;34.50;75.20;;;;;;5048186;28;20034;-81
2022/08/24 11:46:52;;;;;;;3.30;3.03;;;34.40;74.80;;;;;;5051280;28;20073;-81
2022/08/24 11:49:48;;;;;;;5.13;4.18;;;34.10;76.80;;;;;;5046835;28;20032;-82
2022/08/24 11:52:22;;;;;;;6.32;3.88;;;33.90;77.50;;;;;;5046424;28;20029;-82
2022/08/24 11:55:00;;;;;;;2.97;2.67;;;33.70;78.00;;;;;;5057303;28;20068;-81
2022/08/24 11:57:46;;;;;;;3.40;2.93;;;34.20;78.10;;;;;;5056987;28;20014;-81
2022/08/24 12:00:18;;;;;;;3.42;1.90;;;34.10;78.50;;;;;;5057364;28;20089;-81
2022/08/24 12:03:03;;;;;;;1.70;1.60;;;34.10;79.90;;;;;;5055459;28;20037;-81
2022/08/24 12:05:58;;;;;;;1.58;1.48;;;34.10;77.70;;;;;;5051321;28;20033;-81
2022/08/24 12:08:38;;;;;;;1.67;1.55;;;34.00;78.40;;;;;;5051568;28;20064;-81
2022/08/24 12:11:03;;;;;;;1.73;1.23;;;33.60;79.90;;;;;;5057164;28;20022;-82
2022/08/24 12:13:54;;;;;;;2.78;1.38;;;33.20;82.40;;;;;;5057028;28;20054;-81
2022/08/24 12:16:38;;;;;;;1.50;1.40;;;33.60;83.10;;;;;;5057203;28;20021;-81
2022/08/24 12:19:21;;;;;;;1.60;1.50;;;34.00;81.70;;;;;;5041284;28;20060;-81
2022/08/24 12:21:51;;;;;;;1.55;1.45;;;33.70;81.80;;;;;;5055386;28;20022;-81
2022/08/24 12:24:34;;;;;;;3.83;2.05;;;33.90;83.20;;;;;;5056758;28;20014;-81
2022/08/24 12:27:10;;;;;;;1.70;1.42;;;33.60;82.70;;;;;;5056602;28;20048;-81
2022/08/24 12:29:45;;;;;;;2.08;1.70;;;33.50;82.70;;;;;;5049328;28;20029;-81
2022/08/24 12:32:21;;;;;;;1.60;1.50;;;33.80;82.70;;;;;;5046682;28;20033;-81
2022/08/24 12:35:11;;;;;;;1.60;1.50;;;33.90;84.70;;;;;;5056807;28;20024;-81
2022/08/24 12:37:43;;;;;;;1.92;1.77;;;34.30;84.10;;;;;;5056405;28;20105;-82
2022/08/24 12:40:32;;;;;;;2.88;1.88;;;33.90;83.00;;;;;;5056582;28;20041;-81
2022/08/24 12:43:22;;;;;;;3.13;2.30;;;33.40;84.20;;;;;;5056603;28;20128;-81
2022/08/24 12:45:48;;;;;;;1.95;1.85;;;33.90;84.30;;;;;;5056679;28;20072;-81
2022/08/24 12:48:22;;;;;;;2.97;2.03;;;34.10;84.20;;;;;;5056505;28;20021;-81
2022/08/24 12:50:51;;;;;;;2.13;1.85;;;33.90;84.10;;;;;;5055738;28;20018;-81
2022/08/24 12:53:49;;;;;;;1.60;1.50;;;34.10;84.60;;;;;;5056253;28;20017;-81
2022/08/24 12:56:36;;;;;;;2.13;1.60;;;34.20;84.90;;;;;;5054201;28;20033;-81
2022/08/24 12:59:12;;;;;;;2.20;1.60;;;34.60;85.20;;;;;;5056062;28;20029;-81
2022/08/24 13:01:44;;;;;;;2.10;1.90;;;34.50;84.00;;;;;;5048636;28;20117;-81
2022/08/24 13:04:28;;;;;;;2.95;2.72;;;33.90;85.10;;;;;;5051706;28;20014;-82
2022/08/24 13:07:09;;;;;;;2.80;2.60;;;33.40;84.00;;;;;;5049090;28;20025;-81
2022/08/24 13:09:43;;;;;;;2.90;2.70;;;33.40;86.40;;;;;;5047455;28;20021;-82
2022/08/24 13:12:37;;;;;;;2.50;2.30;;;33.30;86.70;;;;;;5045171;28;20052;-81